sensor_id;sensor_type;location;lat;lon;timestamp;pressure;altitude;pressure_sealevel;temperature;humidity
50592;BME280;36548;50.506;30.834;2022-12-10T02:30:14;99448.42;;;1.68;95.53
50592;BME280;36548;50.506;30.834;2022-12-10T02:31:26;99447.45;;;1.70;94.87
50592;BME280;36548;50.506;30.834;2022-12-10T02:32:41;99445.83;;;1.88;94.33
50592;BME280;36548;50.506;30.834;2022-12-10T02:33:55;99443.41;;;2.04;93.70
50592;BME280;36548;50.506;30.834;2022-12-10T02:35:08;99438.30;;;2.20;92.85
50592;BME280;36548;50.506;30.834;2022-12-10T02:36:18;99435.93;;;2.35;92.48
50592;BME280;36548;50.506;30.834;2022-12-10T02:37:35;99442.31;;;2.50;92.00
50592;BME280;36548;50.506;30.834;2022-12-10T02:38:52;99437.58;;;2.77;91.40
50592;BME280;36548;50.506;30.834;2022-12-10T02:40:07;99438.64;;;2.73;90.75
50592;BME280;36548;50.506;30.834;2022-12-10T02:41:25;99425.64;;;2.87;90.80
50592;BME280;36548;50.506;30.834;2022-12-10T02:42:37;99428.80;;;2.96;89.87
50592;BME280;36548;50.506;30.834;2022-12-10T02:43:51;99428.50;;;3.02;89.25
50592;BME280;36548;50.506;30.834;2022-12-10T02:45:02;99419.17;;;3.12;89.09
50592;BME280;36548;50.506;30.834;2022-12-10T02:46:13;99425.05;;;3.19;88.56
50592;BME280;36548;50.506;30.834;2022-12-10T02:47:29;99417.23;;;3.35;88.23
50592;BME280;36548;50.506;30.834;2022-12-10T02:48:40;99420.09;;;3.30;88.11
50592;BME280;36548;50.506;30.834;2022-12-10T02:49:51;99417.08;;;3.38;88.06
50592;BME280;36548;50.506;30.834;2022-12-10T02:51:02;99413.50;;;3.39;87.20
50592;BME280;36548;50.506;30.834;2022-12-10T02:52:17;99422.88;;;3.46;87.11
50592;BME280;36548;50.506;30.834;2022-12-10T02:53:27;99423.64;;;3.48;86.76
50592;BME280;36548;50.506;30.834;2022-12-10T02:55:56;99424.85;;;3.60;86.98
50592;BME280;36548;50.506;30.834;2022-12-10T03:00:17;99412.14;;;3.67;85.66
50592;BME280;36548;50.506;30.834;2022-12-10T03:06:17;99418.70;;;3.77;85.41
50592;BME280;36548;50.506;30.834;2022-12-10T03:07:33;99420.03;;;3.68;84.99
50592;BME280;36548;50.506;30.834;2022-12-10T03:08:52;99406.23;;;3.79;84.84
50592;BME280;36548;50.506;30.834;2022-12-10T03:11:27;99402.70;;;3.79;84.79
50592;BME280;36548;50.506;30.834;2022-12-10T03:12:44;99411.98;;;3.70;84.10
50592;BME280;36548;50.506;30.834;2022-12-10T03:15:14;99412.99;;;3.67;84.50
50592;BME280;36548;50.506;30.834;2022-12-10T03:16:28;99411.91;;;3.71;84.39
50592;BME280;36548;50.506;30.834;2022-12-10T03:17:50;99403.33;;;3.84;84.12
50592;BME280;36548;50.506;30.834;2022-12-10T03:19:04;99405.43;;;3.77;83.91
50592;BME280;36548;50.506;30.834;2022-12-10T03:20:17;99409.09;;;3.74;83.58
50592;BME280;36548;50.506;30.834;2022-12-10T03:21:28;99414.32;;;3.76;83.78
50592;BME280;36548;50.506;30.834;2022-12-10T03:22:43;99417.86;;;3.77;83.45
50592;BME280;36548;50.506;30.834;2022-12-10T03:23:53;99422.23;;;3.78;83.42
50592;BME280;36548;50.506;30.834;2022-12-10T03:25:02;99415.97;;;3.79;83.32
50592;BME280;36548;50.506;30.834;2022-12-10T03:26:11;99420.52;;;3.77;82.94
50592;BME280;36548;50.506;30.834;2022-12-10T03:27:23;99413.31;;;3.79;83.04
50592;BME280;36548;50.506;30.834;2022-12-10T03:28:37;99412.55;;;3.77;82.84
50592;BME280;36548;50.506;30.834;2022-12-10T03:29:52;99412.55;;;3.77;82.71
50592;BME280;36548;50.506;30.834;2022-12-10T03:31:02;99411.62;;;3.78;82.56
50592;BME280;36548;50.506;30.834;2022-12-10T03:32:13;99409.81;;;3.78;82.46
50592;BME280;36548;50.506;30.834;2022-12-10T03:33:23;99404.58;;;3.77;82.51
50592;BME280;36548;50.506;30.834;2022-12-10T03:34:35;99403.66;;;3.78;82.62
50592;BME280;36548;50.506;30.834;2022-12-10T03:35:46;99407.08;;;3.80;82.46
50592;BME280;36548;50.506;30.834;2022-12-10T03:37:01;99393.19;;;3.92;82.24
50592;BME280;36548;50.506;30.834;2022-12-10T03:38:11;99392.88;;;3.81;81.81
50592;BME280;36548;50.506;30.834;2022-12-10T03:39:21;99388.41;;;3.81;81.81
50592;BME280;36548;50.506;30.834;2022-12-10T03:40:31;99390.05;;;3.84;81.73
50592;BME280;36548;50.506;30.834;2022-12-10T03:41:41;99383.90;;;3.83;81.67
50592;BME280;36548;50.506;30.834;2022-12-10T03:43:02;99385.76;;;3.81;81.50
50592;BME280;36548;50.506;30.834;2022-12-10T03:44:11;99372.32;;;3.84;81.44
50592;BME280;36548;50.506;30.834;2022-12-10T03:45:21;99385.52;;;3.86;80.93
50592;BME280;36548;50.506;30.834;2022-12-10T03:46:31;99383.90;;;3.83;81.35
50592;BME280;36548;50.506;30.834;2022-12-10T03:47:40;99381.25;;;3.83;81.56
50592;BME280;36548;50.506;30.834;2022-12-10T03:48:50;99373.20;;;3.85;80.92
50592;BME280;36548;50.506;30.834;2022-12-10T03:50:00;99372.23;;;3.86;80.79
50592;BME280;36548;50.506;30.834;2022-12-10T03:51:09;99367.64;;;3.89;80.74
50592;BME280;36548;50.506;30.834;2022-12-10T03:52:20;99376.70;;;3.85;80.43
50592;BME280;36548;50.506;30.834;2022-12-10T03:53:30;99382.86;;;3.86;80.42
50592;BME280;36548;50.506;30.834;2022-12-10T03:54:38;99388.41;;;3.81;80.37
50592;BME280;36548;50.506;30.834;2022-12-10T03:55:48;99392.08;;;3.79;80.25
50592;BME280;36548;50.506;30.834;2022-12-10T03:56:57;99382.34;;;3.79;80.63
50592;BME280;36548;50.506;30.834;2022-12-10T03:58:07;99380.37;;;3.83;80.11
50592;BME280;36548;50.506;30.834;2022-12-10T03:59:15;99375.14;;;3.81;80.06
50592;BME280;36548;50.506;30.834;2022-12-10T04:00:25;99358.36;;;3.81;80.10
50592;BME280;36548;50.506;30.834;2022-12-10T04:01:34;99356.64;;;3.80;80.21
50592;BME280;36548;50.506;30.834;2022-12-10T04:02:44;99366.08;;;3.85;80.19
50592;BME280;36548;50.506;30.834;2022-12-10T04:03:59;99364.61;;;3.97;80.17
50592;BME280;36548;50.506;30.834;2022-12-10T04:05:16;99358.97;;;3.86;79.73
50592;BME280;36548;50.506;30.834;2022-12-10T04:06:24;99351.88;;;3.86;79.66
50592;BME280;36548;50.506;30.834;2022-12-10T04:07:33;99358.20;;;3.84;79.41
50592;BME280;36548;50.506;30.834;2022-12-10T04:08:45;99353.66;;;3.86;79.51
50592;BME280;36548;50.506;30.834;2022-12-10T04:09:55;99363.42;;;3.85;79.24
50592;BME280;36548;50.506;30.834;2022-12-10T04:11:05;99365.31;;;3.83;78.88
50592;BME280;36548;50.506;30.834;2022-12-10T04:12:15;99361.78;;;3.83;78.93
50592;BME280;36548;50.506;30.834;2022-12-10T04:13:24;99354.91;;;3.79;78.62
50592;BME280;36548;50.506;30.834;2022-12-10T04:14:51;99351.66;;;3.73;78.79
50592;BME280;36548;50.506;30.834;2022-12-10T04:16:20;99363.41;;;3.68;78.10
50592;BME280;36548;50.506;30.834;2022-12-10T04:17:35;99359.91;;;3.67;78.82
50592;BME280;36548;50.506;30.834;2022-12-10T04:18:51;99343.53;;;3.77;78.86
50592;BME280;36548;50.506;30.834;2022-12-10T04:20:02;99353.75;;;3.67;78.90
50592;BME280;36548;50.506;30.834;2022-12-10T04:21:11;99351.19;;;3.65;79.09
50592;BME280;36548;50.506;30.834;2022-12-10T04:22:40;99350.47;;;3.62;78.86
50592;BME280;36548;50.506;30.834;2022-12-10T04:24:09;99346.00;;;3.62;78.89
50592;BME280;36548;50.506;30.834;2022-12-10T04:25:36;99331.64;;;3.66;78.98
50592;BME280;36548;50.506;30.834;2022-12-10T04:27:11;99341.17;;;3.70;78.94
50592;BME280;36548;50.506;30.834;2022-12-10T04:28:20;99320.10;;;3.67;78.80
50592;BME280;36548;50.506;30.834;2022-12-10T04:29:31;99326.80;;;3.74;78.38
50592;BME280;36548;50.506;30.834;2022-12-10T04:30:40;99329.55;;;3.73;78.39
50592;BME280;36548;50.506;30.834;2022-12-10T04:31:50;99334.30;;;3.66;78.58
50592;BME280;36548;50.506;30.834;2022-12-10T04:32:59;99331.34;;;3.72;78.51
50592;BME280;36548;50.506;30.834;2022-12-10T04:34:09;99329.87;;;3.67;78.20
50592;BME280;36548;50.506;30.834;2022-12-10T04:35:18;99334.09;;;3.71;78.26
50592;BME280;36548;50.506;30.834;2022-12-10T04:36:28;99335.31;;;3.64;78.09
50592;BME280;36548;50.506;30.834;2022-12-10T04:37:43;99332.11;;;3.74;78.33
50592;BME280;36548;50.506;30.834;2022-12-10T04:38:51;99330.87;;;3.64;78.17
50592;BME280;36548;50.506;30.834;2022-12-10T04:40:02;99324.94;;;3.59;77.85
50592;BME280;36548;50.506;30.834;2022-12-10T04:41:12;99333.61;;;3.63;78.09
50592;BME280;36548;50.506;30.834;2022-12-10T04:42:22;99321.27;;;3.62;78.14
50592;BME280;36548;50.506;30.834;2022-12-10T04:43:31;99319.25;;;3.67;78.01
50592;BME280;36548;50.506;30.834;2022-12-10T04:44:42;99320.27;;;3.64;77.89
50592;BME280;36548;50.506;30.834;2022-12-10T04:45:55;99310.66;;;3.62;78.00
50592;BME280;36548;50.506;30.834;2022-12-10T04:47:06;99318.38;;;3.66;77.85
50592;BME280;36548;50.506;30.834;2022-12-10T04:48:16;99312.59;;;3.58;77.81
50592;BME280;36548;50.506;30.834;2022-12-10T04:49:25;99314.03;;;3.65;78.07
50592;BME280;36548;50.506;30.834;2022-12-10T04:50:36;99310.66;;;3.62;77.67
50592;BME280;36548;50.506;30.834;2022-12-10T04:51:45;99321.81;;;3.51;77.82
50592;BME280;36548;50.506;30.834;2022-12-10T04:52:55;99311.11;;;3.52;77.96
50592;BME280;36548;50.506;30.834;2022-12-10T04:54:06;99309.42;;;3.51;78.10
50592;BME280;36548;50.506;30.834;2022-12-10T04:55:24;99299.58;;;3.71;77.77
50592;BME280;36548;50.506;30.834;2022-12-10T04:56:34;99300.05;;;3.62;77.73
50592;BME280;36548;50.506;30.834;2022-12-10T04:57:43;99310.91;;;3.57;77.68
50592;BME280;36548;50.506;30.834;2022-12-10T04:58:52;99296.07;;;3.53;77.85
50592;BME280;36548;50.506;30.834;2022-12-10T05:00:02;99293.55;;;3.50;77.91
50592;BME280;36548;50.506;30.834;2022-12-10T05:01:12;99285.67;;;3.48;77.95
50592;BME280;36548;50.506;30.834;2022-12-10T05:02:21;99288.03;;;3.54;77.96
50592;BME280;36548;50.506;30.834;2022-12-10T05:03:31;99289.51;;;3.60;77.58
50592;BME280;36548;50.506;30.834;2022-12-10T05:04:41;99292.08;;;3.62;77.46
50592;BME280;36548;50.506;30.834;2022-12-10T05:05:50;99299.49;;;3.55;77.43
50592;BME280;36548;50.506;30.834;2022-12-10T05:07:00;99293.63;;;3.48;77.55
50592;BME280;36548;50.506;30.834;2022-12-10T05:08:09;99289.37;;;3.46;77.85
50592;BME280;36548;50.506;30.834;2022-12-10T05:09:19;99284.91;;;3.46;78.08
50592;BME280;36548;50.506;30.834;2022-12-10T05:10:28;99277.87;;;3.45;77.97
50592;BME280;36548;50.506;30.834;2022-12-10T05:11:37;99278.52;;;3.50;77.73
50592;BME280;36548;50.506;30.834;2022-12-10T05:12:46;99278.59;;;3.49;77.93
50592;BME280;36548;50.506;30.834;2022-12-10T05:13:55;99272.56;;;3.45;77.90
50592;BME280;36548;50.506;30.834;2022-12-10T05:15:07;99284.11;;;3.44;78.03
50592;BME280;36548;50.506;30.834;2022-12-10T05:16:19;99285.75;;;3.47;78.26
50592;BME280;36548;50.506;30.834;2022-12-10T05:17:28;99285.67;;;3.48;78.48
50592;BME280;36548;50.506;30.834;2022-12-10T05:18:38;99285.37;;;3.54;78.14
50592;BME280;36548;50.506;30.834;2022-12-10T05:19:48;99274.68;;;3.56;77.93
50592;BME280;36548;50.506;30.834;2022-12-10T05:21:01;99266.72;;;3.56;77.72
50592;BME280;36548;50.506;30.834;2022-12-10T05:22:12;99266.39;;;3.62;77.48
50592;BME280;36548;50.506;30.834;2022-12-10T05:23:43;99263.14;;;3.57;77.54
50592;BME280;36548;50.506;30.834;2022-12-10T05:24:52;99256.81;;;3.60;77.54
50592;BME280;36548;50.506;30.834;2022-12-10T05:27:33;99257.70;;;3.76;77.16
50592;BME280;36548;50.506;30.834;2022-12-10T05:30:01;99257.75;;;3.58;77.26
50592;BME280;36548;50.506;30.834;2022-12-10T05:31:15;99259.39;;;3.61;77.27
50592;BME280;36548;50.506;30.834;2022-12-10T05:32:27;99249.62;;;3.62;77.26
50592;BME280;36548;50.506;30.834;2022-12-10T05:33:37;99257.33;;;3.66;77.06
50592;BME280;36548;50.506;30.834;2022-12-10T05:34:46;99266.17;;;3.67;76.91
50592;BME280;36548;50.506;30.834;2022-12-10T05:35:57;99254.55;;;3.69;76.72
50592;BME280;36548;50.506;30.834;2022-12-10T05:37:07;99256.41;;;3.67;76.68
50592;BME280;36548;50.506;30.834;2022-12-10T05:38:18;99257.41;;;3.65;76.78
50592;BME280;36548;50.506;30.834;2022-12-10T05:39:28;99259.14;;;3.66;76.63
50592;BME280;36548;50.506;30.834;2022-12-10T05:40:37;99265.62;;;3.60;76.75
50592;BME280;36548;50.506;30.834;2022-12-10T05:41:53;99243.22;;;3.66;77.17
50592;BME280;36548;50.506;30.834;2022-12-10T05:43:03;99249.78;;;3.58;77.13
50592;BME280;36548;50.506;30.834;2022-12-10T05:44:12;99250.38;;;3.64;77.07
50592;BME280;36548;50.506;30.834;2022-12-10T05:45:22;99249.53;;;3.63;77.13
50592;BME280;36548;50.506;30.834;2022-12-10T05:46:33;99232.43;;;3.69;76.86
50592;BME280;36548;50.506;30.834;2022-12-10T05:47:45;99237.83;;;3.67;76.59
50592;BME280;36548;50.506;30.834;2022-12-10T05:48:54;99247.59;;;3.67;76.77
50592;BME280;36548;50.506;30.834;2022-12-10T05:50:05;99228.14;;;3.66;76.85
50592;BME280;36548;50.506;30.834;2022-12-10T05:51:16;99242.03;;;3.71;76.63
50592;BME280;36548;50.506;30.834;2022-12-10T05:52:24;99248.44;;;3.67;76.39
50592;BME280;36548;50.506;30.834;2022-12-10T05:53:34;99246.80;;;3.65;76.79
50592;BME280;36548;50.506;30.834;2022-12-10T05:54:43;99241.41;;;3.66;76.72
50592;BME280;36548;50.506;30.834;2022-12-10T05:56:00;99248.36;;;3.69;76.54
50592;BME280;36548;50.506;30.834;2022-12-10T05:57:09;99237.57;;;3.72;76.62
50592;BME280;36548;50.506;30.834;2022-12-10T05:58:20;99247.51;;;3.68;76.49
50592;BME280;36548;50.506;30.834;2022-12-10T05:59:29;99239.21;;;3.74;76.36
50592;BME280;36548;50.506;30.834;2022-12-10T06:00:40;99241.95;;;3.73;76.42
50592;BME280;36548;50.506;30.834;2022-12-10T06:01:50;99239.37;;;3.71;76.34
50592;BME280;36548;50.506;30.834;2022-12-10T06:03:00;99233.22;;;3.71;76.43
50592;BME280;36548;50.506;30.834;2022-12-10T06:04:12;99233.77;;;3.78;76.12
50592;BME280;36548;50.506;30.834;2022-12-10T06:05:21;99231.42;;;3.71;76.23
50592;BME280;36548;50.506;30.834;2022-12-10T06:06:35;99224.30;;;3.72;76.30
50592;BME280;36548;50.506;30.834;2022-12-10T06:07:44;99237.73;;;3.69;76.24
50592;BME280;36548;50.506;30.834;2022-12-10T06:08:54;99220.97;;;3.68;76.26
50592;BME280;36548;50.506;30.834;2022-12-10T10:29:21;98933.85;;;1.96;99.91
50592;BME280;36548;50.506;30.834;2022-12-10T10:30:44;98941.14;;;2.08;99.17
50592;BME280;36548;50.506;30.834;2022-12-10T10:33:30;98928.70;;;2.28;97.93
50592;BME280;36548;50.506;30.834;2022-12-10T10:34:40;98926.06;;;2.28;97.56
50592;BME280;36548;50.506;30.834;2022-12-10T10:35:54;98928.75;;;2.44;97.16
50592;BME280;36548;50.506;30.834;2022-12-10T10:37:25;98928.83;;;2.76;96.44
50592;BME280;36548;50.506;30.834;2022-12-10T10:38:35;98930.55;;;2.77;95.68
50592;BME280;36548;50.506;30.834;2022-12-10T10:39:46;98928.88;;;2.92;95.07
50592;BME280;36548;50.506;30.834;2022-12-10T10:41:02;98928.13;;;3.05;94.62
50592;BME280;36548;50.506;30.834;2022-12-10T10:42:19;98931.88;;;3.17;93.90
50592;BME280;36548;50.506;30.834;2022-12-10T10:43:34;98933.94;;;3.28;93.18
50592;BME280;36548;50.506;30.834;2022-12-10T10:44:49;98934.94;;;3.57;92.99
50592;BME280;36548;50.506;30.834;2022-12-10T10:46:04;98939.50;;;3.55;92.29
50592;BME280;36548;50.506;30.834;2022-12-10T10:47:30;98930.15;;;3.64;91.87
50592;BME280;36548;50.506;30.834;2022-12-10T10:48:41;98938.25;;;3.77;91.82
50592;BME280;36548;50.506;30.834;2022-12-10T10:49:49;98937.73;;;3.86;91.14
50592;BME280;36548;50.506;30.834;2022-12-10T10:52:38;98929.77;;;4.17;90.20
50592;BME280;36548;50.506;30.834;2022-12-10T10:53:50;98938.08;;;4.10;89.78
50592;BME280;36548;50.506;30.834;2022-12-10T10:55:01;98940.30;;;4.18;89.57
50592;BME280;36548;50.506;30.834;2022-12-10T10:56:14;98935.48;;;4.25;89.34
50592;BME280;36548;50.506;30.834;2022-12-10T10:57:35;98929.69;;;4.33;89.00
50592;BME280;36548;50.506;30.834;2022-12-10T10:58:49;98934.55;;;4.40;88.63
50592;BME280;36548;50.506;30.834;2022-12-10T11:01:18;98933.14;;;4.49;87.84
50592;BME280;36548;50.506;30.834;2022-12-10T11:03:57;98925.55;;;4.72;87.53
50592;BME280;36548;50.506;30.834;2022-12-10T11:27:16;98914.71;;;5.45;83.17
50592;BME280;36548;50.506;30.834;2022-12-10T11:34:19;98914.66;;;5.33;82.50
50592;BME280;36548;50.506;30.834;2022-12-10T11:35:41;98912.41;;;5.26;82.31
50592;BME280;36548;50.506;30.834;2022-12-10T11:40:00;98902.97;;;5.35;82.22
50592;BME280;36548;50.506;30.834;2022-12-10T11:42:58;98899.36;;;5.36;82.06
50592;BME280;36548;50.506;30.834;2022-12-10T11:44:16;98907.72;;;5.30;82.05
50592;BME280;36548;50.506;30.834;2022-12-10T11:45:51;98907.55;;;5.33;81.76
50592;BME280;36548;50.506;30.834;2022-12-10T11:51:19;98896.65;;;5.23;81.24
50592;BME280;36548;50.506;30.834;2022-12-10T11:55:38;98896.55;;;5.25;80.98
50592;BME280;36548;50.506;30.834;2022-12-10T11:56:52;98888.73;;;5.22;80.52
50592;BME280;36548;50.506;30.834;2022-12-10T11:59:49;98879.70;;;5.24;80.37
50592;BME280;36548;50.506;30.834;2022-12-10T12:08:55;98884.12;;;5.11;80.25
50592;BME280;36548;50.506;30.834;2022-12-10T12:12:00;98878.04;;;5.09;80.07
50592;BME280;36548;50.506;30.834;2022-12-10T12:14:34;98882.41;;;5.10;79.60
50592;BME280;36548;50.506;30.834;2022-12-10T12:16:12;98875.16;;;5.26;79.78
50592;BME280;36548;50.506;30.834;2022-12-10T12:17:30;98886.59;;;5.14;79.62
50592;BME280;36548;50.506;30.834;2022-12-10T12:19:54;98885.03;;;5.24;80.00
50592;BME280;36548;50.506;30.834;2022-12-10T12:21:10;98890.08;;;5.29;79.54
50592;BME280;36548;50.506;30.834;2022-12-10T12:23:59;98893.38;;;5.33;79.34
50592;BME280;36548;50.506;30.834;2022-12-10T12:25:44;98887.25;;;5.45;79.16
50592;BME280;36548;50.506;30.834;2022-12-10T12:26:57;98895.83;;;5.36;79.02
50592;BME280;36548;50.506;30.834;2022-12-10T12:28:23;98893.16;;;5.36;78.90
50592;BME280;36548;50.506;30.834;2022-12-10T12:29:48;98885.16;;;5.50;78.90
50592;BME280;36548;50.506;30.834;2022-12-10T12:31:12;98891.17;;;5.39;78.88
50592;BME280;36548;50.506;30.834;2022-12-10T12:32:25;98896.39;;;5.41;78.78
50592;BME280;36548;50.506;30.834;2022-12-10T12:34:01;98894.50;;;5.43;78.70
50592;BME280;36548;50.506;30.834;2022-12-10T12:36:26;98902.28;;;5.46;78.74
50592;BME280;36548;50.506;30.834;2022-12-10T12:37:44;98901.97;;;5.51;78.81
50592;BME280;36548;50.506;30.834;2022-12-10T12:40:30;98899.06;;;5.68;78.25
50592;BME280;36548;50.506;30.834;2022-12-10T12:43:10;98896.79;;;5.62;77.87
50592;BME280;36548;50.506;30.834;2022-12-10T12:45:51;98899.27;;;5.65;77.61
50592;BME280;36548;50.506;30.834;2022-12-10T12:49:01;98896.61;;;5.65;77.47
50592;BME280;36548;50.506;30.834;2022-12-10T12:51:58;98892.38;;;5.75;77.20
50592;BME280;36548;50.506;30.834;2022-12-10T12:54:27;98887.25;;;5.72;77.21
50592;BME280;36548;50.506;30.834;2022-12-10T12:57:30;98899.66;;;5.59;77.15
50592;BME280;36548;50.506;30.834;2022-12-10T13:00:16;98889.92;;;5.72;76.96
50592;BME280;36548;50.506;30.834;2022-12-10T13:01:40;98895.84;;;5.63;77.17
50592;BME280;36548;50.506;30.834;2022-12-10T13:03:07;98902.98;;;5.62;76.93
50592;BME280;36548;50.506;30.834;2022-12-10T13:04:14;98895.73;;;5.64;77.04
50592;BME280;36548;50.506;30.834;2022-12-10T13:05:27;98884.14;;;5.66;76.84
50592;BME280;36548;50.506;30.834;2022-12-10T13:06:38;98885.75;;;5.68;76.62
50592;BME280;36548;50.506;30.834;2022-12-10T13:09:27;98883.09;;;5.68;76.39
50592;BME280;36548;50.506;30.834;2022-12-10T13:14:13;98886.31;;;5.73;76.23
50592;BME280;36548;50.506;30.834;2022-12-10T13:22:05;98899.65;;;5.86;75.74
50592;BME280;36548;50.506;30.834;2022-12-10T13:28:38;98900.28;;;5.90;75.29
50592;BME280;36548;50.506;30.834;2022-12-10T13:35:22;98902.77;;;5.93;74.83
50592;BME280;36548;50.506;30.834;2022-12-10T13:43:57;98899.81;;;5.97;74.58
50592;BME280;36548;50.506;30.834;2022-12-10T13:45:25;98904.03;;;5.87;74.54
50592;BME280;36548;50.506;30.834;2022-12-10T21:07:22;98988.80;;;3.60;100.00
50592;BME280;36548;50.506;30.834;2022-12-10T21:08:33;98986.15;;;3.60;99.52
50592;BME280;36548;50.506;30.834;2022-12-10T21:09:48;98977.98;;;3.79;98.38
50592;BME280;36548;50.506;30.834;2022-12-10T21:10:59;98978.06;;;3.77;97.64
50592;BME280;36548;50.506;30.834;2022-12-10T21:12:08;98971.03;;;3.92;96.98
50592;BME280;36548;50.506;30.834;2022-12-10T21:13:18;98967.39;;;4.09;96.11
50592;BME280;36548;50.506;30.834;2022-12-10T21:14:27;98962.80;;;4.27;95.11
50592;BME280;36548;50.506;30.834;2022-12-10T21:15:37;98967.88;;;4.46;94.14
50592;BME280;36548;50.506;30.834;2022-12-10T21:16:46;98967.69;;;4.64;92.77
50592;BME280;36548;50.506;30.834;2022-12-10T21:17:55;98964.13;;;4.79;91.61
50592;BME280;36548;50.506;30.834;2022-12-10T21:19:04;98963.27;;;4.93;90.77
50592;BME280;36548;50.506;30.834;2022-12-10T21:20:16;98957.09;;;5.07;90.10
50592;BME280;36548;50.506;30.834;2022-12-10T21:21:24;98956.97;;;5.23;89.67
50592;BME280;36548;50.506;30.834;2022-12-10T21:22:36;98964.06;;;5.37;88.97
50592;BME280;36548;50.506;30.834;2022-12-10T21:23:46;98957.86;;;5.51;88.56
50592;BME280;36548;50.506;30.834;2022-12-10T21:24:55;98962.19;;;5.66;88.06
50592;BME280;36548;50.506;30.834;2022-12-10T21:26:04;98963.00;;;5.81;87.38
50592;BME280;36548;50.506;30.834;2022-12-10T21:27:14;98962.20;;;5.93;86.68
50592;BME280;36548;50.506;30.834;2022-12-10T21:28:24;98960.76;;;6.02;85.53
50592;BME280;36548;50.506;30.834;2022-12-10T21:29:33;98973.48;;;6.11;85.14
50592;BME280;36548;50.506;30.834;2022-12-10T21:30:44;98972.00;;;6.20;84.69
50592;BME280;36548;50.506;30.834;2022-12-10T21:31:55;98966.16;;;6.28;84.34
50592;BME280;36548;50.506;30.834;2022-12-10T21:33:04;98978.77;;;6.39;84.00
50592;BME280;36548;50.506;30.834;2022-12-10T21:34:13;98978.89;;;6.50;83.52
50592;BME280;36548;50.506;30.834;2022-12-10T21:35:21;98977.40;;;6.59;83.00
50592;BME280;36548;50.506;30.834;2022-12-10T21:36:31;98977.73;;;6.67;82.58
50592;BME280;36548;50.506;30.834;2022-12-10T21:37:42;98986.16;;;6.74;81.90
50592;BME280;36548;50.506;30.834;2022-12-10T21:38:51;98987.55;;;6.79;81.40
50592;BME280;36548;50.506;30.834;2022-12-10T21:40:00;98991.61;;;6.85;81.00
50592;BME280;36548;50.506;30.834;2022-12-10T21:41:13;98987.77;;;6.89;80.67
50592;BME280;36548;50.506;30.834;2022-12-10T21:42:41;98984.77;;;6.94;80.28
50592;BME280;36548;50.506;30.834;2022-12-10T21:44:10;98977.30;;;6.99;79.69
50592;BME280;36548;50.506;30.834;2022-12-10T21:45:20;98967.06;;;7.06;79.48
50592;BME280;36548;50.506;30.834;2022-12-10T21:46:29;98965.77;;;7.11;78.85
50592;BME280;36548;50.506;30.834;2022-12-10T21:47:39;98974.42;;;7.15;78.33
50592;BME280;36548;50.506;30.834;2022-12-10T21:48:48;98960.86;;;7.18;77.65
50592;BME280;36548;50.506;30.834;2022-12-10T21:49:57;98958.07;;;7.20;77.21
50592;BME280;36548;50.506;30.834;2022-12-10T21:51:08;98952.62;;;7.21;76.90
50592;BME280;36548;50.506;30.834;2022-12-10T21:52:17;98957.00;;;7.22;76.35
50592;BME280;36548;50.506;30.834;2022-12-10T21:53:26;98968.41;;;7.24;76.23
50592;BME280;36548;50.506;30.834;2022-12-10T21:54:36;98959.45;;;7.25;76.23
50592;BME280;36548;50.506;30.834;2022-12-10T21:55:46;98963.72;;;7.28;75.67
50592;BME280;36548;50.506;30.834;2022-12-10T21:56:56;98978.13;;;7.25;74.50
50592;BME280;36548;50.506;30.834;2022-12-10T21:58:05;98977.40;;;7.23;74.16
50592;BME280;36548;50.506;30.834;2022-12-10T21:59:14;98983.47;;;7.25;74.69
50592;BME280;36548;50.506;30.834;2022-12-10T22:00:24;98981.53;;;7.27;74.82
50592;BME280;36548;50.506;30.834;2022-12-10T22:01:33;98981.34;;;7.30;74.59
50592;BME280;36548;50.506;30.834;2022-12-10T22:02:48;98973.41;;;7.42;73.72
50592;BME280;36548;50.506;30.834;2022-12-10T22:03:57;98988.47;;;7.30;73.48
50592;BME280;36548;50.506;30.834;2022-12-10T22:05:07;98990.94;;;7.33;73.91
50592;BME280;36548;50.506;30.834;2022-12-10T22:06:27;98986.52;;;7.45;73.18
50592;BME280;36548;50.506;30.834;2022-12-10T22:07:38;98993.39;;;7.36;73.20
50592;BME280;36548;50.506;30.834;2022-12-10T22:08:47;98983.55;;;7.37;72.54
50592;BME280;36548;50.506;30.834;2022-12-10T22:09:56;98988.77;;;7.38;72.52
50592;BME280;36548;50.506;30.834;2022-12-10T22:11:05;98984.20;;;7.40;72.22
50592;BME280;36548;50.506;30.834;2022-12-10T22:12:14;98978.97;;;7.39;71.51
50592;BME280;36548;50.506;30.834;2022-12-10T22:13:24;98979.92;;;7.38;71.56
50592;BME280;36548;50.506;30.834;2022-12-10T22:14:34;98975.42;;;7.38;71.72
50592;BME280;36548;50.506;30.834;2022-12-10T22:15:42;98977.90;;;7.41;71.56
50592;BME280;36548;50.506;30.834;2022-12-10T22:16:52;98981.30;;;7.43;71.71
50592;BME280;36548;50.506;30.834;2022-12-10T22:18:01;98973.94;;;7.47;71.73
50592;BME280;36548;50.506;30.834;2022-12-10T22:19:17;98959.58;;;7.61;71.38
50592;BME280;36548;50.506;30.834;2022-12-10T22:20:26;98964.63;;;7.53;71.29
50592;BME280;36548;50.506;30.834;2022-12-10T22:21:35;98966.22;;;7.55;70.91
50592;BME280;36548;50.506;30.834;2022-12-10T22:22:43;98954.44;;;7.58;70.74
50592;BME280;36548;50.506;30.834;2022-12-10T22:23:53;98956.03;;;7.60;70.74
50592;BME280;36548;50.506;30.834;2022-12-10T22:25:03;98948.02;;;7.60;70.56
50592;BME280;36548;50.506;30.834;2022-12-10T22:26:13;98952.41;;;7.61;70.96
50592;BME280;36548;50.506;30.834;2022-12-10T22:27:21;98953.48;;;7.59;71.12
50592;BME280;36548;50.506;30.834;2022-12-10T22:28:31;98948.37;;;7.56;71.03
50592;BME280;36548;50.506;30.834;2022-12-10T22:29:39;98951.47;;;7.49;71.24
50592;BME280;36548;50.506;30.834;2022-12-10T22:30:49;98957.16;;;7.45;71.58
50592;BME280;36548;50.506;30.834;2022-12-10T22:31:58;98953.00;;;7.41;71.84
50592;BME280;36548;50.506;30.834;2022-12-10T22:33:09;98951.86;;;7.32;71.75
50592;BME280;36548;50.506;30.834;2022-12-10T22:34:19;98956.66;;;7.27;72.12